createdAt,value
2023-01-17T00:24:31.419Z,2.8
2023-01-17T00:53:42.207Z,3
2023-01-17T01:22:50.939Z,3.1
2023-01-17T01:52:14.264Z,3
2023-01-17T02:21:34.154Z,2.9
2023-01-17T02:50:56.265Z,2.8
2023-01-17T03:20:16.229Z,2.8
2023-01-17T03:49:34.958Z,2.9
2023-01-17T04:18:54.748Z,2.8
2023-01-17T04:48:06.008Z,2.8
2023-01-17T05:17:26.079Z,2.8
2023-01-17T05:46:42.798Z,2.7
2023-01-17T06:16:04.884Z,2.6
2023-01-17T06:45:14.557Z,2.6
2023-01-17T07:14:30.249Z,2.5
2023-01-17T07:43:50.653Z,2.3
2023-01-17T08:13:10.201Z,2
2023-01-17T08:42:29.216Z,2.1
2023-01-17T09:11:49.602Z,2.2
2023-01-17T09:41:12.420Z,2.6
2023-01-17T10:10:31.455Z,3.2
2023-01-17T10:39:53.561Z,3.4
2023-01-17T11:09:07.905Z,4.3
2023-01-17T11:38:27.227Z,4.9
2023-01-17T12:07:49.312Z,5.2
2023-01-17T12:37:05.732Z,5.7
2023-01-17T13:06:31.412Z,5.9
2023-01-17T13:35:48.530Z,5.6
2023-01-17T14:04:58.236Z,5.5
2023-01-17T14:34:03.487Z,5.6
2023-01-17T15:03:05.722Z,5.2
2023-01-17T15:32:07.660Z,4.8
2023-01-17T16:00:29.898Z,4.5
2023-01-17T16:29:43.670Z,4.2
2023-01-17T16:58:52.508Z,3.8
2023-01-17T17:28:02.914Z,3.5
2023-01-17T17:57:08.923Z,3.3
2023-01-17T18:26:09.703Z,3.1
2023-01-17T18:55:16.516Z,3
2023-01-17T19:24:31.393Z,2.8
2023-01-17T19:53:50.361Z,2.5
2023-01-17T20:23:08.935Z,2.3
2023-01-17T20:52:15.808Z,2.1
2023-01-17T21:21:32.227Z,2
2023-01-17T21:50:34.252Z,1.9
2023-01-17T22:19:38.523Z,1.8
2023-01-17T22:48:41.921Z,1.8
2023-01-17T23:17:49.359Z,1.6
2023-01-17T23:46:54.277Z,1.5
